sensor_id;sensor_type;location;lat;lon;timestamp;pressure;altitude;pressure_sealevel;temperature;humidity
2563;BME280;1291;51.420;6.970;2023-05-03T00:02:14;101229.41;;;13.40;nan
2563;BME280;1291;51.420;6.970;2023-05-03T00:04:40;101222.59;;;13.71;nan
2563;BME280;1291;51.420;6.970;2023-05-03T00:07:06;101223.19;;;13.62;nan
2563;BME280;1291;51.420;6.970;2023-05-03T00:09:34;101227.09;;;13.50;nan
2563;BME280;1291;51.420;6.970;2023-05-03T00:12:00;101227.03;;;13.47;nan
2563;BME280;1291;51.420;6.970;2023-05-03T00:14:26;101224.97;;;13.38;nan
2563;BME280;1291;51.420;6.970;2023-05-03T00:16:51;101226.09;;;13.46;nan
2563;BME280;1291;51.420;6.970;2023-05-03T00:19:16;101222.41;;;13.65;nan
2563;BME280;1291;51.420;6.970;2023-05-03T00:21:43;101223.53;;;13.22;nan
2563;BME280;1291;51.420;6.970;2023-05-03T00:24:09;101232.44;;;13.29;nan
2563;BME280;1291;51.420;6.970;2023-05-03T00:26:34;101227.13;;;13.25;nan
2563;BME280;1291;51.420;6.970;2023-05-03T00:29:00;101233.66;;;13.38;nan
2563;BME280;1291;51.420;6.970;2023-05-03T00:31:25;101229.38;;;13.39;nan
2563;BME280;1291;51.420;6.970;2023-05-03T00:33:50;101232.91;;;13.17;nan
2563;BME280;1291;51.420;6.970;2023-05-03T00:36:18;101234.78;;;13.21;nan
2563;BME280;1291;51.420;6.970;2023-05-03T00:38:44;101236.56;;;13.22;nan
2563;BME280;1291;51.420;6.970;2023-05-03T00:41:09;101237.81;;;13.32;nan
2563;BME280;1291;51.420;6.970;2023-05-03T00:43:35;101230.97;;;13.61;nan
2563;BME280;1291;51.420;6.970;2023-05-03T00:46:02;101238.31;;;13.23;nan
2563;BME280;1291;51.420;6.970;2023-05-03T00:48:30;101238.06;;;13.39;nan
2563;BME280;1291;51.420;6.970;2023-05-03T00:50:56;101239.53;;;13.31;nan
2563;BME280;1291;51.420;6.970;2023-05-03T00:53:22;101240.06;;;13.47;nan
2563;BME280;1291;51.420;6.970;2023-05-03T00:55:50;101236.47;;;13.43;nan
2563;BME280;1291;51.420;6.970;2023-05-03T00:58:16;101229.84;;;13.53;nan
2563;BME280;1291;51.420;6.970;2023-05-03T01:00:42;101234.25;;;13.30;nan
2563;BME280;1291;51.420;6.970;2023-05-03T01:03:07;101226.56;;;13.60;nan
2563;BME280;1291;51.420;6.970;2023-05-03T01:05:43;101225.75;;;13.61;nan
2563;BME280;1291;51.420;6.970;2023-05-03T01:08:19;101223.97;;;13.60;nan
2563;BME280;1291;51.420;6.970;2023-05-03T01:10:55;101228.25;;;13.32;nan
2563;BME280;1291;51.420;6.970;2023-05-03T01:16:51;56347.09;;;-145.17;100.00
2563;BME280;1291;51.420;6.970;2023-05-03T01:22:59;56347.09;;;-145.17;100.00
2563;BME280;1291;51.420;6.970;2023-05-03T01:27:15;101228.25;;;13.32;nan
2563;BME280;1291;51.420;6.970;2023-05-03T01:30:07;101233.59;;;13.35;nan
2563;BME280;1291;51.420;6.970;2023-05-03T01:32:46;101235.41;;;13.38;nan
2563;BME280;1291;51.420;6.970;2023-05-03T01:35:42;101235.66;;;13.45;nan
2563;BME280;1291;51.420;6.970;2023-05-03T01:38:09;101235.03;;;13.29;nan
2563;BME280;1291;51.420;6.970;2023-05-03T01:40:41;101235.63;;;13.20;nan
2563;BME280;1291;51.420;6.970;2023-05-03T01:43:11;101234.94;;;13.25;nan
2563;BME280;1291;51.420;6.970;2023-05-03T01:45:37;101236.50;;;13.44;nan
2563;BME280;1291;51.420;6.970;2023-05-03T01:48:08;101241.75;;;13.46;nan
2563;BME280;1291;51.420;6.970;2023-05-03T01:50:34;101241.63;;;13.17;nan
2563;BME280;1291;51.420;6.970;2023-05-03T01:52:59;101242.34;;;12.89;nan
2563;BME280;1291;51.420;6.970;2023-05-03T01:55:28;101235.41;;;12.90;nan
2563;BME280;1291;51.420;6.970;2023-05-03T01:57:53;101242.00;;;13.28;nan
2563;BME280;1291;51.420;6.970;2023-05-03T02:00:21;101245.97;;;13.42;nan
2563;BME280;1291;51.420;6.970;2023-05-03T02:02:47;101255.28;;;13.10;nan
2563;BME280;1291;51.420;6.970;2023-05-03T02:05:12;101250.56;;;13.00;nan
2563;BME280;1291;51.420;6.970;2023-05-03T02:07:38;101257.78;;;13.31;nan
2563;BME280;1291;51.420;6.970;2023-05-03T02:10:04;101254.75;;;13.44;nan
2563;BME280;1291;51.420;6.970;2023-05-03T02:12:30;101256.53;;;13.45;nan
2563;BME280;1291;51.420;6.970;2023-05-03T02:14:55;101264.31;;;13.44;nan
2563;BME280;1291;51.420;6.970;2023-05-03T02:17:20;101264.59;;;13.28;nan
2563;BME280;1291;51.420;6.970;2023-05-03T02:19:53;101268.00;;;13.26;nan
2563;BME280;1291;51.420;6.970;2023-05-03T02:22:18;101267.53;;;13.13;nan
2563;BME280;1291;51.420;6.970;2023-05-03T02:24:44;101267.66;;;13.40;nan
2563;BME280;1291;51.420;6.970;2023-05-03T02:27:09;101261.94;;;13.02;nan
2563;BME280;1291;51.420;6.970;2023-05-03T02:29:34;101267.53;;;13.13;nan
2563;BME280;1291;51.420;6.970;2023-05-03T02:32:00;101263.81;;;13.30;nan
2563;BME280;1291;51.420;6.970;2023-05-03T02:34:26;101271.19;;;12.94;nan
2563;BME280;1291;51.420;6.970;2023-05-03T02:36:51;101274.78;;;12.97;nan
2563;BME280;1291;51.420;6.970;2023-05-03T02:39:20;101281.06;;;13.26;nan
2563;BME280;1291;51.420;6.970;2023-05-03T02:41:45;101283.28;;;13.16;nan
2563;BME280;1291;51.420;6.970;2023-05-03T02:44:10;101283.44;;;12.72;nan
2563;BME280;1291;51.420;6.970;2023-05-03T02:46:36;101286.34;;;12.57;nan
2563;BME280;1291;51.420;6.970;2023-05-03T02:49:01;101281.06;;;13.02;nan
2563;BME280;1291;51.420;6.970;2023-05-03T02:51:27;101278.44;;;12.56;nan
2563;BME280;1291;51.420;6.970;2023-05-03T02:53:52;101281.38;;;12.88;nan
2563;BME280;1291;51.420;6.970;2023-05-03T02:56:18;101277.22;;;12.93;nan
2563;BME280;1291;51.420;6.970;2023-05-03T02:58:43;101281.38;;;12.88;nan
2563;BME280;1291;51.420;6.970;2023-05-03T03:01:09;101271.56;;;13.04;nan
2563;BME280;1291;51.420;6.970;2023-05-03T03:03:35;101265.53;;;13.05;nan
2563;BME280;1291;51.420;6.970;2023-05-03T03:06:00;101260.38;;;13.07;nan
2563;BME280;1291;51.420;6.970;2023-05-03T03:08:25;101266.16;;;12.76;nan
2563;BME280;1291;51.420;6.970;2023-05-03T03:10:51;101257.59;;;12.78;nan
2563;BME280;1291;51.420;6.970;2023-05-03T03:13:16;101256.00;;;12.82;nan
2563;BME280;1291;51.420;6.970;2023-05-03T03:15:41;101254.53;;;13.38;nan
2563;BME280;1291;51.420;6.970;2023-05-03T03:18:07;101255.78;;;13.00;nan
2563;BME280;1291;51.420;6.970;2023-05-03T03:20:32;101244.41;;;12.51;nan
2563;BME280;1291;51.420;6.970;2023-05-03T03:22:57;101249.72;;;12.54;nan
2563;BME280;1291;51.420;6.970;2023-05-03T03:25:23;101241.63;;;12.93;nan
2563;BME280;1291;51.420;6.970;2023-05-03T03:27:48;101235.66;;;12.49;nan
2563;BME280;1291;51.420;6.970;2023-05-03T03:30:14;101237.47;;;12.74;nan
2563;BME280;1291;51.420;6.970;2023-05-03T03:32:39;101230.63;;;12.54;nan
2563;BME280;1291;51.420;6.970;2023-05-03T03:35:05;101237.69;;;13.04;nan
2563;BME280;1291;51.420;6.970;2023-05-03T03:37:31;101231.47;;;12.77;nan
2563;BME280;1291;51.420;6.970;2023-05-03T03:39:56;101227.06;;;12.52;nan
2563;BME280;1291;51.420;6.970;2023-05-03T03:42:21;101231.81;;;12.86;nan
2563;BME280;1291;51.420;6.970;2023-05-03T03:44:48;101230.47;;;12.73;nan
2563;BME280;1291;51.420;6.970;2023-05-03T03:47:14;101236.78;;;12.80;nan
2563;BME280;1291;51.420;6.970;2023-05-03T03:49:39;101222.56;;;12.48;nan
2563;BME280;1291;51.420;6.970;2023-05-03T03:52:05;101223.22;;;12.42;nan
2563;BME280;1291;51.420;6.970;2023-05-03T03:54:32;101229.38;;;12.66;nan
2563;BME280;1291;51.420;6.970;2023-05-03T03:57:00;101225.41;;;12.78;nan
2563;BME280;1291;51.420;6.970;2023-05-03T03:59:28;101226.47;;;12.36;nan
2563;BME280;1291;51.420;6.970;2023-05-03T04:01:53;101209.63;;;12.73;nan
2563;BME280;1291;51.420;6.970;2023-05-03T04:04:19;101203.03;;;12.36;nan
2563;BME280;1291;51.420;6.970;2023-05-03T04:06:44;101208.56;;;12.68;nan
2563;BME280;1291;51.420;6.970;2023-05-03T04:09:09;101207.50;;;12.16;nan
2563;BME280;1291;51.420;6.970;2023-05-03T04:11:35;101203.59;;;12.27;nan
2563;BME280;1291;51.420;6.970;2023-05-03T04:14:00;101199.19;;;12.73;nan
2563;BME280;1291;51.420;6.970;2023-05-03T04:16:26;101193.53;;;12.85;nan
2563;BME280;1291;51.420;6.970;2023-05-03T04:18:52;101202.09;;;12.34;nan
2563;BME280;1291;51.420;6.970;2023-05-03T04:21:17;101193.16;;;12.27;nan
2563;BME280;1291;51.420;6.970;2023-05-03T04:23:44;101199.25;;;12.28;nan
2563;BME280;1291;51.420;6.970;2023-05-03T04:26:09;101207.94;;;12.29;nan
2563;BME280;1291;51.420;6.970;2023-05-03T04:28:35;101213.03;;;12.48;nan
2563;BME280;1291;51.420;6.970;2023-05-03T04:31:00;101213.59;;;12.39;nan
2563;BME280;1291;51.420;6.970;2023-05-03T04:33:26;101222.56;;;12.48;nan
2563;BME280;1291;51.420;6.970;2023-05-03T04:35:54;101221.78;;;12.50;nan
2563;BME280;1291;51.420;6.970;2023-05-03T04:38:19;101233.47;;;12.37;nan
2563;BME280;1291;51.420;6.970;2023-05-03T04:40:47;101243.81;;;12.36;nan
2563;BME280;1291;51.420;6.970;2023-05-03T04:43:12;101251.44;;;13.00;nan
2563;BME280;1291;51.420;6.970;2023-05-03T04:45:39;101248.38;;;13.12;nan
2563;BME280;1291;51.420;6.970;2023-05-03T04:48:05;101248.34;;;12.86;nan
2563;BME280;1291;51.420;6.970;2023-05-03T04:50:31;101248.13;;;13.04;nan
2563;BME280;1291;51.420;6.970;2023-05-03T04:52:57;101247.13;;;13.25;nan
2563;BME280;1291;51.420;6.970;2023-05-03T04:55:23;101246.09;;;13.45;nan
2563;BME280;1291;51.420;6.970;2023-05-03T04:57:48;101245.56;;;13.06;nan
2563;BME280;1291;51.420;6.970;2023-05-03T05:00:16;101252.38;;;12.78;nan
2563;BME280;1291;51.420;6.970;2023-05-03T05:02:42;101250.50;;;12.98;nan
2563;BME280;1291;51.420;6.970;2023-05-03T05:05:08;101248.09;;;13.53;nan
2563;BME280;1291;51.420;6.970;2023-05-03T05:07:33;101254.66;;;12.93;nan
2563;BME280;1291;51.420;6.970;2023-05-03T05:10:01;101257.63;;;12.80;nan
2563;BME280;1291;51.420;6.970;2023-05-03T05:12:30;101256.53;;;12.97;nan
2563;BME280;1291;51.420;6.970;2023-05-03T05:14:55;101251.78;;;13.10;nan
2563;BME280;1291;51.420;6.970;2023-05-03T05:17:22;101256.34;;;13.15;nan
2563;BME280;1291;51.420;6.970;2023-05-03T05:19:49;101255.53;;;13.42;nan
2563;BME280;1291;51.420;6.970;2023-05-03T05:22:14;101262.44;;;13.40;nan
2563;BME280;1291;51.420;6.970;2023-05-03T05:24:40;101267.38;;;13.58;nan
2563;BME280;1291;51.420;6.970;2023-05-03T05:27:05;101276.31;;;13.39;nan
2563;BME280;1291;51.420;6.970;2023-05-03T05:29:31;101280.53;;;13.35;nan
2563;BME280;1291;51.420;6.970;2023-05-03T05:31:56;101281.06;;;12.78;nan
2563;BME280;1291;51.420;6.970;2023-05-03T05:34:21;101286.69;;;13.37;nan
2563;BME280;1291;51.420;6.970;2023-05-03T05:36:46;101287.19;;;13.51;nan
2563;BME280;1291;51.420;6.970;2023-05-03T05:39:12;101294.53;;;13.37;nan
2563;BME280;1291;51.420;6.970;2023-05-03T05:41:37;101297.22;;;13.66;nan
2563;BME280;1291;51.420;6.970;2023-05-03T05:44:03;101291.66;;;13.55;nan
2563;BME280;1291;51.420;6.970;2023-05-03T05:46:28;101297.84;;;13.33;nan
2563;BME280;1291;51.420;6.970;2023-05-03T05:48:54;101290.34;;;13.42;nan
2563;BME280;1291;51.420;6.970;2023-05-03T05:51:19;101304.50;;;13.25;nan
2563;BME280;1291;51.420;6.970;2023-05-03T05:53:45;101296.50;;;13.44;nan
2563;BME280;1291;51.420;6.970;2023-05-03T05:56:14;101295.28;;;13.59;nan
2563;BME280;1291;51.420;6.970;2023-05-03T05:58:39;101296.22;;;14.14;nan
2563;BME280;1291;51.420;6.970;2023-05-03T06:01:04;101301.88;;;14.00;nan
2563;BME280;1291;51.420;6.970;2023-05-03T06:03:30;101305.47;;;14.04;nan
2563;BME280;1291;51.420;6.970;2023-05-03T06:05:56;101303.19;;;14.15;nan
2563;BME280;1291;51.420;6.970;2023-05-03T06:08:21;101307.53;;;14.14;nan
2563;BME280;1291;51.420;6.970;2023-05-03T06:10:47;101311.09;;;13.15;nan
2563;BME280;1291;51.420;6.970;2023-05-03T06:13:12;101315.75;;;13.24;nan
2563;BME280;1291;51.420;6.970;2023-05-03T06:15:39;101321.78;;;13.71;nan
2563;BME280;1291;51.420;6.970;2023-05-03T06:18:04;101319.22;;;13.24;nan
2563;BME280;1291;51.420;6.970;2023-05-03T06:20:30;101319.66;;;13.35;nan
2563;BME280;1291;51.420;6.970;2023-05-03T06:22:55;101316.97;;;13.58;nan
2563;BME280;1291;51.420;6.970;2023-05-03T06:25:20;101320.63;;;13.89;nan
2563;BME280;1291;51.420;6.970;2023-05-03T06:27:46;101321.34;;;14.10;nan
2563;BME280;1291;51.420;6.970;2023-05-03T06:30:11;101315.94;;;14.04;nan
2563;BME280;1291;51.420;6.970;2023-05-03T06:32:40;101315.38;;;14.14;nan
2563;BME280;1291;51.420;6.970;2023-05-03T06:35:06;101312.25;;;14.53;nan
2563;BME280;1291;51.420;6.970;2023-05-03T06:37:33;101313.47;;;14.63;nan
2563;BME280;1291;51.420;6.970;2023-05-03T06:39:58;101316.97;;;15.24;nan
2563;BME280;1291;51.420;6.970;2023-05-03T06:42:23;101316.56;;;14.51;nan
2563;BME280;1291;51.420;6.970;2023-05-03T06:44:49;101312.00;;;15.01;nan
2563;BME280;1291;51.420;6.970;2023-05-03T06:47:14;101320.50;;;14.66;nan
2563;BME280;1291;51.420;6.970;2023-05-03T06:49:40;101314.63;;;15.01;nan
2563;BME280;1291;51.420;6.970;2023-05-03T06:52:06;101307.78;;;15.38;nan
2563;BME280;1291;51.420;6.970;2023-05-03T06:54:31;101309.03;;;15.21;nan
2563;BME280;1291;51.420;6.970;2023-05-03T06:56:57;101304.38;;;14.24;nan
2563;BME280;1291;51.420;6.970;2023-05-03T06:59:22;101318.19;;;14.75;nan
2563;BME280;1291;51.420;6.970;2023-05-03T07:01:48;101320.38;;;14.90;nan
2563;BME280;1291;51.420;6.970;2023-05-03T07:04:14;101316.59;;;15.10;nan
2563;BME280;1291;51.420;6.970;2023-05-03T07:06:40;101312.19;;;16.06;nan
2563;BME280;1291;51.420;6.970;2023-05-03T07:09:05;101321.97;;;15.47;nan
2563;BME280;1291;51.420;6.970;2023-05-03T07:11:30;101312.25;;;15.11;nan
2563;BME280;1291;51.420;6.970;2023-05-03T07:13:58;101314.09;;;15.15;nan
2563;BME280;1291;51.420;6.970;2023-05-03T07:16:23;101310.84;;;14.92;nan
2563;BME280;1291;51.420;6.970;2023-05-03T07:18:49;101314.72;;;15.70;nan
2563;BME280;1291;51.420;6.970;2023-05-03T07:21:14;101313.09;;;16.08;nan
2563;BME280;1291;51.420;6.970;2023-05-03T07:23:40;101307.03;;;16.11;nan
2563;BME280;1291;51.420;6.970;2023-05-03T07:26:06;101307.75;;;15.70;nan
2563;BME280;1291;51.420;6.970;2023-05-03T07:28:32;101302.81;;;15.16;nan
2563;BME280;1291;51.420;6.970;2023-05-03T07:30:57;101307.28;;;15.20;nan
2563;BME280;1291;51.420;6.970;2023-05-03T07:33:23;101295.56;;;15.71;nan
2563;BME280;1291;51.420;6.970;2023-05-03T07:35:49;101295.66;;;15.42;nan
2563;BME280;1291;51.420;6.970;2023-05-03T07:38:15;101293.09;;;15.12;nan
2563;BME280;1291;51.420;6.970;2023-05-03T07:40:40;101290.78;;;15.56;nan
2563;BME280;1291;51.420;6.970;2023-05-03T07:43:06;101284.25;;;15.40;nan
2563;BME280;1291;51.420;6.970;2023-05-03T07:45:34;101272.56;;;16.30;nan
2563;BME280;1291;51.420;6.970;2023-05-03T07:47:59;101280.91;;;15.77;nan
2563;BME280;1291;51.420;6.970;2023-05-03T07:50:25;101273.81;;;16.08;nan
2563;BME280;1291;51.420;6.970;2023-05-03T07:52:51;101262.97;;;16.70;nan
2563;BME280;1291;51.420;6.970;2023-05-03T07:55:17;101265.69;;;16.75;nan
2563;BME280;1291;51.420;6.970;2023-05-03T07:57:43;101263.31;;;16.08;nan
2563;BME280;1291;51.420;6.970;2023-05-03T08:00:09;101275.13;;;16.67;nan
2563;BME280;1291;51.420;6.970;2023-05-03T08:02:36;101266.72;;;16.42;nan
2563;BME280;1291;51.420;6.970;2023-05-03T08:05:02;101272.16;;;17.35;nan
2563;BME280;1291;51.420;6.970;2023-05-03T08:07:29;101266.06;;;16.93;nan
2563;BME280;1291;51.420;6.970;2023-05-03T08:09:55;101272.09;;;16.48;nan
2563;BME280;1291;51.420;6.970;2023-05-03T08:12:22;101269.81;;;17.05;nan
2563;BME280;1291;51.420;6.970;2023-05-03T08:14:51;101269.75;;;15.85;nan
2563;BME280;1291;51.420;6.970;2023-05-03T08:17:17;101264.75;;;16.32;nan
2563;BME280;1291;51.420;6.970;2023-05-03T08:19:43;101260.16;;;16.61;nan
2563;BME280;1291;51.420;6.970;2023-05-03T08:22:08;101257.44;;;16.99;nan
2563;BME280;1291;51.420;6.970;2023-05-03T08:24:36;101259.97;;;16.53;nan
2563;BME280;1291;51.420;6.970;2023-05-03T08:27:02;101261.06;;;16.63;nan
2563;BME280;1291;51.420;6.970;2023-05-03T08:29:27;101259.28;;;17.03;nan
2563;BME280;1291;51.420;6.970;2023-05-03T08:31:53;101264.38;;;16.16;nan
2563;BME280;1291;51.420;6.970;2023-05-03T08:34:18;101256.66;;;17.02;nan
2563;BME280;1291;51.420;6.970;2023-05-03T08:36:43;101259.53;;;17.17;nan
2563;BME280;1291;51.420;6.970;2023-05-03T08:39:09;101254.19;;;17.11;nan
2563;BME280;1291;51.420;6.970;2023-05-03T08:41:35;101265.25;;;16.94;nan
2563;BME280;1291;51.420;6.970;2023-05-03T08:44:01;101249.13;;;16.77;nan
2563;BME280;1291;51.420;6.970;2023-05-03T08:46:28;101247.00;;;17.98;nan
2563;BME280;1291;51.420;6.970;2023-05-03T08:48:54;101250.66;;;17.09;nan
2563;BME280;1291;51.420;6.970;2023-05-03T08:51:20;101242.47;;;16.92;nan
2563;BME280;1291;51.420;6.970;2023-05-03T08:53:46;101242.88;;;16.71;nan
2563;BME280;1291;51.420;6.970;2023-05-03T08:56:19;101246.03;;;16.97;nan
2563;BME280;1291;51.420;6.970;2023-05-03T08:58:47;101248.16;;;16.72;nan
2563;BME280;1291;51.420;6.970;2023-05-03T09:01:12;101255.41;;;16.84;nan
2563;BME280;1291;51.420;6.970;2023-05-03T09:03:38;101245.81;;;16.45;nan
2563;BME280;1291;51.420;6.970;2023-05-03T09:06:18;101241.09;;;17.61;nan
2563;BME280;1291;51.420;6.970;2023-05-03T09:08:43;101252.28;;;16.21;nan
2563;BME280;1291;51.420;6.970;2023-05-03T09:11:30;101242.78;;;16.68;nan
2563;BME280;1291;51.420;6.970;2023-05-03T09:16:37;101241.47;;;17.32;nan
2563;BME280;1291;51.420;6.970;2023-05-03T09:19:03;101242.06;;;17.68;nan
2563;BME280;1291;51.420;6.970;2023-05-03T09:21:34;101228.81;;;17.58;nan
2563;BME280;1291;51.420;6.970;2023-05-03T09:23:59;101234.88;;;17.54;nan
2563;BME280;1291;51.420;6.970;2023-05-03T09:26:27;101235.50;;;17.90;nan
2563;BME280;1291;51.420;6.970;2023-05-03T09:28:53;101238.50;;;17.14;nan
2563;BME280;1291;51.420;6.970;2023-05-03T09:31:18;101236.31;;;17.37;nan
2563;BME280;1291;51.420;6.970;2023-05-03T09:33:44;101218.38;;;17.63;nan
2563;BME280;1291;51.420;6.970;2023-05-03T09:36:09;101217.94;;;17.38;nan
2563;BME280;1291;51.420;6.970;2023-05-03T09:38:35;101227.75;;;16.59;nan
2563;BME280;1291;51.420;6.970;2023-05-03T09:41:01;101222.81;;;17.17;nan
2563;BME280;1291;51.420;6.970;2023-05-03T09:43:27;101225.91;;;17.95;nan
2563;BME280;1291;51.420;6.970;2023-05-03T09:46:06;101222.06;;;18.31;nan
2563;BME280;1291;51.420;6.970;2023-05-03T09:48:32;101220.81;;;17.04;nan
2563;BME280;1291;51.420;6.970;2023-05-03T09:50:57;101225.28;;;17.58;nan
2563;BME280;1291;51.420;6.970;2023-05-03T09:53:23;101224.66;;;16.78;nan
2563;BME280;1291;51.420;6.970;2023-05-03T09:55:51;101215.47;;;17.98;nan
2563;BME280;1291;51.420;6.970;2023-05-03T09:58:17;101214.91;;;18.22;nan
2563;BME280;1291;51.420;6.970;2023-05-03T10:00:43;101218.19;;;18.04;nan
2563;BME280;1291;51.420;6.970;2023-05-03T10:03:27;101207.50;;;17.92;nan
2563;BME280;1291;51.420;6.970;2023-05-03T10:05:57;101205.53;;;17.82;nan
2563;BME280;1291;51.420;6.970;2023-05-03T10:08:40;101201.53;;;18.04;nan
2563;BME280;1291;51.420;6.970;2023-05-03T10:11:07;101203.22;;;18.67;nan
2563;BME280;1291;51.420;6.970;2023-05-03T10:13:34;101198.84;;;19.47;nan
2563;BME280;1291;51.420;6.970;2023-05-03T10:16:06;101198.16;;;18.81;nan
2563;BME280;1291;51.420;6.970;2023-05-03T10:18:42;101197.31;;;18.82;nan
2563;BME280;1291;51.420;6.970;2023-05-03T10:21:13;101187.66;;;18.83;nan
2563;BME280;1291;51.420;6.970;2023-05-03T10:26:39;101179.75;;;19.73;nan
2563;BME280;1291;51.420;6.970;2023-05-03T10:29:04;101173.09;;;19.19;nan
2563;BME280;1291;51.420;6.970;2023-05-03T10:31:47;101180.66;;;18.85;nan
2563;BME280;1291;51.420;6.970;2023-05-03T10:34:20;101181.38;;;19.62;nan
2563;BME280;1291;51.420;6.970;2023-05-03T10:36:47;101177.78;;;19.52;nan
2563;BME280;1291;51.420;6.970;2023-05-03T10:39:15;101180.22;;;19.26;nan
2563;BME280;1291;51.420;6.970;2023-05-03T10:41:40;101179.63;;;19.61;nan
2563;BME280;1291;51.420;6.970;2023-05-03T10:44:24;101178.69;;;19.51;nan
2563;BME280;1291;51.420;6.970;2023-05-03T10:46:52;101188.66;;;18.92;nan
2563;BME280;1291;51.420;6.970;2023-05-03T10:49:22;101185.38;;;19.13;nan
2563;BME280;1291;51.420;6.970;2023-05-03T10:51:48;101186.78;;;19.74;nan
2563;BME280;1291;51.420;6.970;2023-05-03T10:54:14;101186.94;;;19.99;nan
2563;BME280;1291;51.420;6.970;2023-05-03T10:56:51;101186.28;;;20.35;nan
2563;BME280;1291;51.420;6.970;2023-05-03T10:59:17;101173.31;;;20.97;nan
2563;BME280;1291;51.420;6.970;2023-05-03T11:01:43;101170.22;;;19.92;nan
2563;BME280;1291;51.420;6.970;2023-05-03T11:04:31;101168.56;;;20.09;nan
2563;BME280;1291;51.420;6.970;2023-05-03T11:06:57;101171.13;;;18.94;nan
2563;BME280;1291;51.420;6.970;2023-05-03T11:09:32;101170.59;;;19.31;nan
2563;BME280;1291;51.420;6.970;2023-05-03T11:11:58;101156.19;;;19.99;nan
2563;BME280;1291;51.420;6.970;2023-05-03T11:14:27;101161.38;;;19.85;nan
2563;BME280;1291;51.420;6.970;2023-05-03T11:16:53;101158.00;;;18.99;nan
2563;BME280;1291;51.420;6.970;2023-05-03T11:19:21;101172.28;;;18.46;nan
2563;BME280;1291;51.420;6.970;2023-05-03T11:21:46;101148.59;;;19.24;nan
2563;BME280;1291;51.420;6.970;2023-05-03T11:24:12;101146.50;;;19.93;nan
2563;BME280;1291;51.420;6.970;2023-05-03T11:26:41;101145.72;;;18.96;nan
2563;BME280;1291;51.420;6.970;2023-05-03T11:29:10;101138.28;;;19.49;nan
2563;BME280;1291;51.420;6.970;2023-05-03T11:31:37;101131.50;;;19.85;nan
2563;BME280;1291;51.420;6.970;2023-05-03T11:34:02;101139.25;;;19.63;nan
2563;BME280;1291;51.420;6.970;2023-05-03T11:36:28;101136.13;;;20.26;nan
2563;BME280;1291;51.420;6.970;2023-05-03T11:38:58;101142.25;;;20.20;nan
2563;BME280;1291;51.420;6.970;2023-05-03T11:41:24;101137.47;;;19.59;nan
2563;BME280;1291;51.420;6.970;2023-05-03T11:43:49;101132.53;;;20.05;nan
2563;BME280;1291;51.420;6.970;2023-05-03T11:46:26;101125.75;;;20.81;nan
2563;BME280;1291;51.420;6.970;2023-05-03T11:48:52;101130.16;;;20.85;nan
2563;BME280;1291;51.420;6.970;2023-05-03T11:51:21;101131.81;;;20.49;nan
2563;BME280;1291;51.420;6.970;2023-05-03T11:53:47;101130.91;;;20.46;nan
2563;BME280;1291;51.420;6.970;2023-05-03T11:56:13;101133.25;;;19.83;nan
2563;BME280;1291;51.420;6.970;2023-05-03T11:58:58;101133.25;;;19.83;nan
2563;BME280;1291;51.420;6.970;2023-05-03T12:01:27;101127.41;;;20.41;nan
2563;BME280;1291;51.420;6.970;2023-05-03T12:03:55;101138.34;;;19.61;nan
2563;BME280;1291;51.420;6.970;2023-05-03T12:06:22;101129.28;;;20.80;nan
2563;BME280;1291;51.420;6.970;2023-05-03T12:08:47;101136.88;;;20.02;nan
2563;BME280;1291;51.420;6.970;2023-05-03T12:11:13;101132.56;;;20.22;nan
2563;BME280;1291;51.420;6.970;2023-05-03T12:13:39;101133.22;;;19.77;nan
2563;BME280;1291;51.420;6.970;2023-05-03T12:16:08;101130.03;;;20.44;nan
2563;BME280;1291;51.420;6.970;2023-05-03T12:18:51;101124.88;;;20.70;nan
2563;BME280;1291;51.420;6.970;2023-05-03T12:21:18;101124.91;;;21.73;nan
2563;BME280;1291;51.420;6.970;2023-05-03T12:23:44;101121.38;;;20.99;nan
2563;BME280;1291;51.420;6.970;2023-05-03T12:26:10;101122.25;;;20.74;nan
2563;BME280;1291;51.420;6.970;2023-05-03T12:28:36;101114.34;;;21.28;nan
2563;BME280;1291;51.420;6.970;2023-05-03T12:31:02;101109.94;;;21.41;nan
2563;BME280;1291;51.420;6.970;2023-05-03T12:33:28;101109.94;;;21.30;nan
2563;BME280;1291;51.420;6.970;2023-05-03T12:35:53;101110.81;;;21.69;nan
2563;BME280;1291;51.420;6.970;2023-05-03T12:38:18;101109.94;;;21.23;nan
2563;BME280;1291;51.420;6.970;2023-05-03T12:40:44;101102.91;;;21.08;nan
2563;BME280;1291;51.420;6.970;2023-05-03T12:43:10;101099.28;;;20.53;nan
2563;BME280;1291;51.420;6.970;2023-05-03T12:45:36;101094.09;;;21.23;nan
2563;BME280;1291;51.420;6.970;2023-05-03T12:48:01;101101.03;;;20.53;nan
2563;BME280;1291;51.420;6.970;2023-05-03T12:50:27;101087.84;;;21.95;nan
2563;BME280;1291;51.420;6.970;2023-05-03T12:52:52;101091.34;;;20.41;nan
2563;BME280;1291;51.420;6.970;2023-05-03T12:55:18;101076.09;;;19.72;nan
2563;BME280;1291;51.420;6.970;2023-05-03T12:57:43;101072.47;;;19.60;nan
2563;BME280;1291;51.420;6.970;2023-05-03T13:00:09;101071.91;;;20.18;nan
2563;BME280;1291;51.420;6.970;2023-05-03T13:02:35;101071.88;;;20.05;nan
2563;BME280;1291;51.420;6.970;2023-05-03T13:05:00;101067.66;;;21.70;nan
2563;BME280;1291;51.420;6.970;2023-05-03T13:07:27;101069.44;;;21.31;nan
2563;BME280;1291;51.420;6.970;2023-05-03T13:09:53;101063.28;;;20.71;nan
2563;BME280;1291;51.420;6.970;2023-05-03T13:12:19;101062.41;;;21.27;nan
2563;BME280;1291;51.420;6.970;2023-05-03T13:14:46;101058.88;;;21.28;nan
2563;BME280;1291;51.420;6.970;2023-05-03T13:17:13;101047.47;;;20.99;nan
2563;BME280;1291;51.420;6.970;2023-05-03T13:19:39;101053.50;;;20.33;nan
2563;BME280;1291;51.420;6.970;2023-05-03T13:22:06;101046.56;;;21.27;nan
2563;BME280;1291;51.420;6.970;2023-05-03T13:24:31;101041.03;;;22.15;nan
2563;BME280;1291;51.420;6.970;2023-05-03T13:26:56;101030.72;;;21.21;nan
2563;BME280;1291;51.420;6.970;2023-05-03T13:29:22;101026.28;;;21.32;nan
2563;BME280;1291;51.420;6.970;2023-05-03T13:31:48;101028.00;;;20.26;nan
2563;BME280;1291;51.420;6.970;2023-05-03T13:34:13;101028.13;;;20.78;nan
2563;BME280;1291;51.420;6.970;2023-05-03T13:36:39;101014.88;;;21.35;nan
2563;BME280;1291;51.420;6.970;2023-05-03T13:39:04;101022.84;;;20.72;nan
2563;BME280;1291;51.420;6.970;2023-05-03T13:41:33;101019.28;;;21.19;nan
2563;BME280;1291;51.420;6.970;2023-05-03T13:43:59;101010.13;;;22.20;nan
2563;BME280;1291;51.420;6.970;2023-05-03T13:46:24;101014.63;;;22.06;nan